createdAt,value
2022-08-22T00:01:22.391Z,11.07
2022-08-22T00:02:55.205Z,9.38
2022-08-22T00:03:08.204Z,10.40
2022-08-22T00:04:02.390Z,11.57
2022-08-22T00:06:41.919Z,11.82
2022-08-22T00:09:29.502Z,13.07
2022-08-22T00:12:14.188Z,12.93
2022-08-22T00:14:51.459Z,13.93
2022-08-22T00:17:33.921Z,13.52
2022-08-22T00:20:13.234Z,13.88
2022-08-22T00:22:50.588Z,13.63
2022-08-22T00:25:38.364Z,14.13
2022-08-22T00:28:14.774Z,14.20
2022-08-22T00:30:52.864Z,15.02
2022-08-22T00:33:32.547Z,13.07
2022-08-22T00:36:17.587Z,14.02
2022-08-22T00:38:53.335Z,14.07
2022-08-22T00:41:43.069Z,15.02
2022-08-22T00:44:40.690Z,14.60
2022-08-22T00:47:28.595Z,15.02
2022-08-22T00:50:14.018Z,15.00
2022-08-22T00:53:01.108Z,14.82
2022-08-22T00:55:51.112Z,15.15
2022-08-22T00:58:54.717Z,15.75
2022-08-22T01:01:32.726Z,14.20
2022-08-22T01:04:28.772Z,14.38
2022-08-22T01:07:14.520Z,15.48
2022-08-22T01:09:59.475Z,14.75
2022-08-22T01:12:45.099Z,14.20
2022-08-22T01:15:21.891Z,14.93
2022-08-22T01:18:27.150Z,14.45
2022-08-22T01:21:36.925Z,14.32
2022-08-22T01:25:05.237Z,14.40
2022-08-22T01:28:17.249Z,12.85
2022-08-22T01:31:17.426Z,14.23
2022-08-22T01:34:36.034Z,14.60
2022-08-22T01:37:34.407Z,14.10
2022-08-22T01:41:04.019Z,13.85
2022-08-22T01:43:59.670Z,14.93
2022-08-22T01:46:37.962Z,14.98
2022-08-22T01:49:15.985Z,16.98
2022-08-22T01:51:52.624Z,16.27
2022-08-22T01:54:32.448Z,14.18
2022-08-22T01:57:07.728Z,16.27
2022-08-22T01:59:42.338Z,15.82
2022-08-22T02:02:25.213Z,15.73
2022-08-22T02:05:02.207Z,16.38
2022-08-22T02:07:47.645Z,16.63
2022-08-22T02:10:24.749Z,14.65
2022-08-22T02:13:06.942Z,16.00
2022-08-22T02:15:48.634Z,15.48
2022-08-22T02:18:25.824Z,15.32
2022-08-22T02:21:05.075Z,14.27
2022-08-22T02:23:49.055Z,15.77
2022-08-22T02:26:22.802Z,14.73
2022-08-22T02:28:59.016Z,15.55
2022-08-22T02:31:42.488Z,17.05
2022-08-22T02:34:37.894Z,15.73
2022-08-22T02:37:17.084Z,16.67
2022-08-22T02:39:55.087Z,16.15
2022-08-22T02:42:29.699Z,15.40
2022-08-22T02:45:07.925Z,16.73
2022-08-22T02:47:47.452Z,15.90
2022-08-22T02:50:24.864Z,15.65
2022-08-22T02:53:00.123Z,14.57
2022-08-22T02:55:48.211Z,14.60
2022-08-22T02:58:27.573Z,15.15
2022-08-22T03:01:23.313Z,14.32
2022-08-22T03:04:14.144Z,15.00
2022-08-22T03:06:46.416Z,14.80
2022-08-22T03:09:26.949Z,16.35
2022-08-22T03:12:09.637Z,16.17
2022-08-22T03:14:45.872Z,15.98
2022-08-22T03:17:21.195Z,15.88
2022-08-22T03:20:00.468Z,16.77
2022-08-22T03:22:39.407Z,16.30
2022-08-22T03:25:20.046Z,15.45
2022-08-22T03:27:57.980Z,15.45
2022-08-22T03:30:34.980Z,16.17
2022-08-22T03:33:18.601Z,16.13
2022-08-22T03:36:02.923Z,15.82
2022-08-22T03:41:34.323Z,15.30
2022-08-22T03:44:40.032Z,14.15
2022-08-22T03:47:28.948Z,15.48
2022-08-22T03:50:35.404Z,15.45
2022-08-22T03:53:40.378Z,15.13
2022-08-22T03:57:00.479Z,14.50
2022-08-22T04:00:04.647Z,12.90
2022-08-22T04:03:00.952Z,17.40
2022-08-22T04:05:53.430Z,17.15
2022-08-22T04:08:52.088Z,14.70
2022-08-22T04:11:49.651Z,16.65
2022-08-22T04:14:36.079Z,26.90
2022-08-22T04:17:45.088Z,26.38
2022-08-22T04:20:46.007Z,15.32
2022-08-22T04:23:37.034Z,15.45
2022-08-22T04:26:16.593Z,18.30
2022-08-22T04:28:52.530Z,17.55
2022-08-22T04:31:28.729Z,17.02
2022-08-22T04:34:07.200Z,16.08
2022-08-22T04:36:45.485Z,14.40
2022-08-22T04:39:21.204Z,14.50
2022-08-22T04:42:00.723Z,15.07
2022-08-22T04:44:49.024Z,15.38
2022-08-22T04:47:31.000Z,16.38
2022-08-22T04:50:08.637Z,16.05
2022-08-22T04:52:56.232Z,17.15
2022-08-22T04:55:35.358Z,17.30
2022-08-22T04:58:18.910Z,17.58
2022-08-22T05:00:55.758Z,16.92
2022-08-22T05:03:30.092Z,20.13
2022-08-22T05:06:04.517Z,20.35
2022-08-22T05:08:40.461Z,21.50
2022-08-22T05:11:12.586Z,21.42
2022-08-22T05:13:47.825Z,20.95
2022-08-22T05:16:22.839Z,22.10
2022-08-22T05:18:57.559Z,21.00
2022-08-22T05:21:36.066Z,20.88
2022-08-22T05:24:10.244Z,20.88
2022-08-22T05:26:45.502Z,20.42
2022-08-22T05:29:20.350Z,21.77
2022-08-22T05:31:55.856Z,22.67
2022-08-22T05:34:28.936Z,22.20
2022-08-22T05:37:10.291Z,22.20
2022-08-22T05:39:47.173Z,25.02
2022-08-22T05:42:24.315Z,27.60
2022-08-22T05:44:56.211Z,28.13
2022-08-22T05:47:35.056Z,30.55
2022-08-22T05:50:09.414Z,29.00
2022-08-22T05:52:57.807Z,24.90
2022-08-22T05:55:31.399Z,20.75
2022-08-22T05:58:19.546Z,22.88
2022-08-22T06:00:55.687Z,27.15
2022-08-22T06:03:29.497Z,21.98
2022-08-22T06:06:03.961Z,18.38
2022-08-22T06:08:40.061Z,20.90
2022-08-22T06:11:17.190Z,20.17
2022-08-22T06:13:53.583Z,17.42
2022-08-22T06:16:31.264Z,17.70
2022-08-22T06:19:19.438Z,16.35
2022-08-22T06:21:51.946Z,16.95
2022-08-22T06:24:27.755Z,15.85
2022-08-22T06:27:03.656Z,16.35
2022-08-22T06:29:38.232Z,17.08
2022-08-22T06:32:14.028Z,16.25
2022-08-22T06:34:47.711Z,17.25
2022-08-22T06:37:22.956Z,16.35
2022-08-22T06:39:55.991Z,16.38
2022-08-22T06:42:30.211Z,25.08
2022-08-22T06:45:08.354Z,28.90
2022-08-22T06:47:43.574Z,17.70
2022-08-22T06:50:26.357Z,16.40
2022-08-22T06:53:01.877Z,16.00
2022-08-22T06:55:33.970Z,16.15
2022-08-22T06:58:15.940Z,16.95
2022-08-22T07:00:58.827Z,15.13
2022-08-22T07:03:40.735Z,15.77
2022-08-22T07:06:16.220Z,17.13
2022-08-22T07:08:46.729Z,17.77
2022-08-22T07:11:23.670Z,18.00
2022-08-22T07:13:59.455Z,19.55
2022-08-22T07:16:32.982Z,18.58
2022-08-22T07:19:03.511Z,18.33
2022-08-22T07:21:44.049Z,17.65
2022-08-22T07:24:18.779Z,18.27
2022-08-22T07:27:05.801Z,19.10
2022-08-22T07:29:45.374Z,17.88
2022-08-22T07:32:20.584Z,18.90
2022-08-22T07:35:09.170Z,20.50
2022-08-22T07:38:01.276Z,25.67
2022-08-22T07:40:36.132Z,20.70
2022-08-22T07:43:18.550Z,22.23
2022-08-22T07:45:52.270Z,25.15
2022-08-22T07:48:28.433Z,25.80
2022-08-22T07:51:03.945Z,25.45
2022-08-22T07:53:41.733Z,26.90
2022-08-22T07:56:17.048Z,27.10
2022-08-22T07:58:53.880Z,28.70
2022-08-22T08:01:25.510Z,28.95
2022-08-22T08:04:00.047Z,28.98
2022-08-22T08:06:32.663Z,28.77
2022-08-22T08:09:03.692Z,30.92
2022-08-22T08:11:41.101Z,30.73
2022-08-22T08:14:17.435Z,32.15
2022-08-22T08:16:55.497Z,32.15
2022-08-22T08:19:25.927Z,31.38
2022-08-22T08:21:57.804Z,30.98
2022-08-22T08:24:40.640Z,29.38
2022-08-22T08:27:33.718Z,31.23
2022-08-22T08:30:15.788Z,32.13
2022-08-22T08:32:50.613Z,40.30
2022-08-22T08:35:31.673Z,36.20
2022-08-22T08:38:17.309Z,35.72
2022-08-22T08:41:03.007Z,34.72
2022-08-22T08:43:43.904Z,49.63
2022-08-22T08:47:05.988Z,34.50
2022-08-22T08:50:02.368Z,27.83
2022-08-22T08:52:53.021Z,32.53
2022-08-22T08:55:37.175Z,32.13
2022-08-22T08:58:31.963Z,31.08
2022-08-22T09:01:21.838Z,31.42
2022-08-22T09:04:31.136Z,43.58
2022-08-22T09:07:42.458Z,39.33
2022-08-22T09:10:32.872Z,36.10
2022-08-22T09:13:27.519Z,29.85
2022-08-22T09:16:14.261Z,36.63
2022-08-22T09:19:27.191Z,33.28
2022-08-22T09:22:28.018Z,27.77
2022-08-22T09:25:17.318Z,29.52
2022-08-22T09:27:55.127Z,29.95
2022-08-22T09:30:31.413Z,25.48
2022-08-22T09:33:08.349Z,25.48
2022-08-22T09:35:48.987Z,23.75
2022-08-22T09:38:37.233Z,24.48
2022-08-22T09:41:23.974Z,21.17
2022-08-22T09:44:07.667Z,23.80
2022-08-22T09:46:50.969Z,27.55
2022-08-22T09:49:31.531Z,27.42
2022-08-22T09:52:14.388Z,26.88
2022-08-22T09:54:51.486Z,29.52
2022-08-22T09:57:31.964Z,25.13
2022-08-22T10:00:22.171Z,22.50
2022-08-22T10:03:06.210Z,22.92
2022-08-22T10:05:46.712Z,21.63
2022-08-22T10:08:46.259Z,22.52
2022-08-22T10:11:25.850Z,21.77
2022-08-22T10:14:03.480Z,21.95
2022-08-22T10:16:44.723Z,23.95
2022-08-22T10:19:21.332Z,20.60
2022-08-22T10:22:30.795Z,20.95
2022-08-22T10:25:19.611Z,21.95
2022-08-22T10:28:05.068Z,22.42
2022-08-22T10:30:41.659Z,21.20
2022-08-22T10:33:16.813Z,22.70
2022-08-22T10:36:04.897Z,20.55
2022-08-22T10:38:46.247Z,20.85
2022-08-22T10:41:29.213Z,22.33
2022-08-22T10:44:10.944Z,21.80
2022-08-22T10:46:51.094Z,22.13
2022-08-22T10:49:28.370Z,22.75
2022-08-22T10:52:14.847Z,20.88
2022-08-22T10:54:49.716Z,22.08
2022-08-22T10:57:41.515Z,30.05
2022-08-22T11:00:35.370Z,25.73
2022-08-22T11:03:18.702Z,60.45
2022-08-22T11:05:54.358Z,37.50
2022-08-22T11:08:53.540Z,32.20
2022-08-22T11:11:42.308Z,22.50
2022-08-22T11:15:03.284Z,29.17
2022-08-22T11:18:23.976Z,26.00
2022-08-22T11:21:01.052Z,19.13
2022-08-22T11:23:40.720Z,23.00
2022-08-22T11:26:30.048Z,23.92
2022-08-22T11:29:27.820Z,21.25
2022-08-22T11:32:06.208Z,22.52
2022-08-22T11:34:49.322Z,23.85
2022-08-22T11:37:42.993Z,18.35
2022-08-22T11:40:28.901Z,21.73
2022-08-22T11:43:11.965Z,20.50
2022-08-22T11:45:50.900Z,21.23
2022-08-22T11:48:25.890Z,22.27
2022-08-22T11:51:13.356Z,20.98
2022-08-22T11:53:50.109Z,20.33
2022-08-22T11:56:29.103Z,22.63
2022-08-22T11:59:06.325Z,19.95
2022-08-22T12:01:43.135Z,21.98
2022-08-22T12:04:19.828Z,21.88
2022-08-22T12:07:00.372Z,19.13
2022-08-22T12:09:40.972Z,21.35
2022-08-22T12:12:25.799Z,18.05
2022-08-22T12:15:03.138Z,19.73
2022-08-22T12:18:12.753Z,19.42
2022-08-22T12:21:22.283Z,17.00
2022-08-22T12:24:20.921Z,15.13
2022-08-22T12:27:06.486Z,16.83
2022-08-22T12:29:50.862Z,16.85
2022-08-22T12:32:58.123Z,16.52
2022-08-22T12:35:41.191Z,16.50
2022-08-22T12:38:29.602Z,17.60
2022-08-22T12:41:27.811Z,16.52
2022-08-22T12:44:17.032Z,14.57
2022-08-22T12:47:05.113Z,16.30
2022-08-22T12:49:52.608Z,13.43
2022-08-22T12:52:41.266Z,14.60
2022-08-22T12:55:36.540Z,14.05
2022-08-22T12:58:23.070Z,14.35
2022-08-22T13:03:29.700Z,12.30
2022-08-22T13:06:04.526Z,14.48
2022-08-22T13:08:42.345Z,13.13
2022-08-22T13:11:22.745Z,13.98
2022-08-22T13:13:58.219Z,12.27
2022-08-22T13:16:38.873Z,15.02
2022-08-22T13:19:18.420Z,16.65
2022-08-22T13:21:55.299Z,17.17
2022-08-22T13:24:40.204Z,15.85
2022-08-22T13:27:30.663Z,17.38
2022-08-22T13:30:06.425Z,17.67
2022-08-22T13:32:44.399Z,17.90
2022-08-22T13:35:25.647Z,18.38
2022-08-22T13:38:03.734Z,17.55
2022-08-22T13:40:35.080Z,15.10
2022-08-22T13:43:11.142Z,18.17
2022-08-22T13:45:52.754Z,14.80
2022-08-22T13:48:28.665Z,15.82
2022-08-22T13:51:08.146Z,16.38
2022-08-22T13:53:49.819Z,15.82
2022-08-22T13:56:47.302Z,24.63
2022-08-22T13:59:49.536Z,28.20
2022-08-22T14:02:52.439Z,49.58
2022-08-22T14:05:29.028Z,28.25
2022-08-22T14:08:12.671Z,24.67
2022-08-22T14:10:52.238Z,19.67
2022-08-22T14:13:45.743Z,20.75
2022-08-22T14:16:23.492Z,17.63
2022-08-22T14:18:57.779Z,22.05
2022-08-22T14:21:43.527Z,15.15
2022-08-22T14:24:28.418Z,27.13
2022-08-22T14:27:05.241Z,23.35
2022-08-22T14:29:45.915Z,23.35
2022-08-22T14:32:36.420Z,15.68
2022-08-22T14:35:29.342Z,23.80
2022-08-22T14:38:30.236Z,26.63
2022-08-22T14:41:06.861Z,20.08
2022-08-22T14:46:22.424Z,14.07
2022-08-22T14:49:13.742Z,21.48
2022-08-22T14:51:50.954Z,20.45
2022-08-22T14:54:28.915Z,19.08
2022-08-22T14:57:01.020Z,13.98
2022-08-22T14:59:47.047Z,14.13
2022-08-22T15:02:27.764Z,14.18
2022-08-22T15:05:01.676Z,13.65
2022-08-22T15:07:35.281Z,12.63
2022-08-22T15:10:21.497Z,13.85
2022-08-22T15:12:54.975Z,11.85
2022-08-22T15:15:41.285Z,10.65
2022-08-22T15:18:35.926Z,12.75
2022-08-22T15:21:10.048Z,10.32
2022-08-22T15:23:47.031Z,10.35
2022-08-22T15:26:26.673Z,9.85
2022-08-22T15:29:08.294Z,11.23
2022-08-22T15:31:46.894Z,10.73
2022-08-22T15:34:30.923Z,11.48
2022-08-22T15:37:09.911Z,12.52
2022-08-22T15:40:00.660Z,11.73
2022-08-22T15:42:37.667Z,12.65
2022-08-22T15:45:19.407Z,12.10
2022-08-22T15:47:53.195Z,12.30
2022-08-22T15:50:33.848Z,12.60
2022-08-22T15:53:24.019Z,13.85
2022-08-22T15:56:24.637Z,12.48
2022-08-22T15:59:30.620Z,13.27
2022-08-22T16:02:27.182Z,13.23
2022-08-22T16:05:18.797Z,13.02
2022-08-22T16:07:52.301Z,16.45
2022-08-22T16:13:33.664Z,11.70
2022-08-22T16:16:09.729Z,11.80
2022-08-22T16:19:16.439Z,12.43
2022-08-22T16:22:12.209Z,11.40
2022-08-22T16:25:06.156Z,11.18
2022-08-22T16:27:52.158Z,11.63
2022-08-22T16:30:34.696Z,10.93
2022-08-22T16:33:17.864Z,11.75
2022-08-22T16:38:50.890Z,11.43
2022-08-22T16:41:30.660Z,11.75
2022-08-22T16:44:27.811Z,13.18
2022-08-22T16:47:11.506Z,14.27
2022-08-22T16:50:10.224Z,14.80
2022-08-22T16:52:58.350Z,14.82
2022-08-22T16:55:47.938Z,15.18
2022-08-22T16:58:57.851Z,16.55
2022-08-22T17:01:51.789Z,17.00
2022-08-22T17:04:32.688Z,15.52
2022-08-22T17:07:22.899Z,15.63
2022-08-22T17:10:19.655Z,17.98
2022-08-22T17:13:06.271Z,17.08
2022-08-22T17:15:51.668Z,17.10
2022-08-22T17:18:44.324Z,15.90
2022-08-22T17:21:25.435Z,16.58
2022-08-22T17:24:07.067Z,16.00
2022-08-22T17:26:50.934Z,18.55
2022-08-22T17:29:47.248Z,16.67
2022-08-22T17:32:24.658Z,17.15
2022-08-22T17:35:07.134Z,17.55
2022-08-22T17:37:47.071Z,17.55
2022-08-22T17:40:32.623Z,17.70
2022-08-22T17:43:16.863Z,16.85
2022-08-22T17:46:12.848Z,19.02
2022-08-22T17:48:51.467Z,18.33
2022-08-22T17:51:29.470Z,17.83
2022-08-22T17:54:07.549Z,17.33
2022-08-22T17:56:50.132Z,18.98
2022-08-22T17:59:35.103Z,18.45
2022-08-22T18:02:13.675Z,18.50
2022-08-22T18:04:49.588Z,19.95
2022-08-22T18:07:36.180Z,20.00
2022-08-22T18:10:14.860Z,20.77
2022-08-22T18:12:51.792Z,20.83
2022-08-22T18:15:27.818Z,21.45
2022-08-22T18:18:03.991Z,20.30
2022-08-22T18:20:44.518Z,20.33
2022-08-22T18:23:35.468Z,22.13
2022-08-22T18:26:21.690Z,23.75
2022-08-22T18:28:58.564Z,22.52
2022-08-22T18:31:38.690Z,22.17
2022-08-22T18:34:20.163Z,21.73
2022-08-22T18:36:57.233Z,22.10
2022-08-22T18:39:32.583Z,22.15
2022-08-22T18:42:10.390Z,21.85
2022-08-22T18:44:46.120Z,22.65
2022-08-22T18:47:20.190Z,22.42
2022-08-22T18:49:54.474Z,22.85
2022-08-22T18:52:38.573Z,21.42
2022-08-22T18:55:28.333Z,24.17
2022-08-22T18:58:29.002Z,25.40
2022-08-22T19:01:11.610Z,24.52
2022-08-22T19:04:05.445Z,25.75
2022-08-22T19:06:48.279Z,26.92
2022-08-22T19:09:40.683Z,26.83
2022-08-22T19:12:32.179Z,26.50
2022-08-22T19:15:25.245Z,26.23
2022-08-22T19:18:14.457Z,29.80
2022-08-22T19:21:02.160Z,27.52
2022-08-22T19:23:51.399Z,26.30
2022-08-22T19:26:29.070Z,26.30
2022-08-22T19:29:01.942Z,26.10
2022-08-22T19:31:48.343Z,25.37
2022-08-22T19:34:46.988Z,26.23
2022-08-22T19:37:31.978Z,24.63
2022-08-22T19:40:06.867Z,23.98
2022-08-22T19:42:40.117Z,23.33
2022-08-22T19:48:00.327Z,21.23
2022-08-22T19:50:37.011Z,22.17
2022-08-22T19:53:33.419Z,20.02
2022-08-22T19:56:18.509Z,18.80
2022-08-22T19:58:59.873Z,19.08
2022-08-22T20:01:58.339Z,20.60
2022-08-22T20:04:59.254Z,19.20
2022-08-22T20:07:45.818Z,18.15
2022-08-22T20:10:24.799Z,18.02
2022-08-22T20:13:07.673Z,17.75
2022-08-22T20:16:16.165Z,16.17
2022-08-22T20:19:08.386Z,16.00
2022-08-22T20:21:49.436Z,17.03
2022-08-22T20:24:29.260Z,14.77
2022-08-22T20:27:13.994Z,14.48
2022-08-22T20:29:49.493Z,14.63
2022-08-22T20:32:23.107Z,14.93
2022-08-22T20:38:15.534Z,14.52
2022-08-22T20:40:56.774Z,15.02
2022-08-22T20:43:32.933Z,14.95
2022-08-22T20:46:17.421Z,14.65
2022-08-22T20:48:49.610Z,14.77
2022-08-22T20:51:25.113Z,14.88
2022-08-22T20:53:57.133Z,14.63
2022-08-22T20:56:38.372Z,13.55
2022-08-22T20:59:28.434Z,13.20
2022-08-22T21:02:07.581Z,12.95
2022-08-22T21:04:53.089Z,11.98
2022-08-22T21:07:28.416Z,12.73
2022-08-22T21:13:09.966Z,12.98
2022-08-22T21:15:44.388Z,13.95
2022-08-22T21:18:16.321Z,13.27
2022-08-22T21:20:46.263Z,14.43
2022-08-22T21:23:17.525Z,13.98
2022-08-22T21:25:52.158Z,14.40
2022-08-22T21:28:32.727Z,14.15
2022-08-22T21:31:10.983Z,14.68
2022-08-22T21:33:46.701Z,13.55
2022-08-22T21:36:20.000Z,14.82
2022-08-22T21:38:53.463Z,13.20
2022-08-22T21:41:29.727Z,13.68
2022-08-22T21:44:27.768Z,12.82
2022-08-22T21:47:15.049Z,13.10
2022-08-22T21:50:07.710Z,14.13
2022-08-22T21:52:40.339Z,14.23
2022-08-22T21:55:24.542Z,15.80
2022-08-22T21:58:07.697Z,15.98
2022-08-22T22:00:51.867Z,14.75
2022-08-22T22:03:23.887Z,15.55
2022-08-22T22:05:59.331Z,14.35
2022-08-22T22:08:31.419Z,13.95
2022-08-22T22:11:06.173Z,15.52
2022-08-22T22:13:40.149Z,15.15
2022-08-22T22:16:13.138Z,14.65
2022-08-22T22:18:43.264Z,15.38
2022-08-22T22:21:13.316Z,13.90
2022-08-22T22:23:43.543Z,14.93
2022-08-22T22:26:14.039Z,15.15
2022-08-22T22:28:47.911Z,12.73
2022-08-22T22:31:19.408Z,12.60
2022-08-22T22:33:49.413Z,11.68
2022-08-22T22:36:22.797Z,11.88
2022-08-22T22:38:53.884Z,12.38
2022-08-22T22:41:25.783Z,11.57
2022-08-22T22:43:56.736Z,11.00
2022-08-22T22:46:30.081Z,11.23
2022-08-22T22:49:00.696Z,12.17
2022-08-22T22:51:30.980Z,12.98
2022-08-22T22:54:01.046Z,10.90
2022-08-22T22:56:31.933Z,11.57
2022-08-22T22:59:12.798Z,12.23
2022-08-22T23:02:04.096Z,10.70
2022-08-22T23:04:37.905Z,11.55
2022-08-22T23:07:09.542Z,11.02
2022-08-22T23:09:45.193Z,11.70
2022-08-22T23:12:16.460Z,11.32
2022-08-22T23:14:46.892Z,11.98
2022-08-22T23:17:18.649Z,11.65
2022-08-22T23:19:48.868Z,12.88
2022-08-22T23:22:19.182Z,12.68
2022-08-22T23:24:50.589Z,12.85
2022-08-22T23:27:20.506Z,12.15
2022-08-22T23:29:50.462Z,12.45
2022-08-22T23:32:21.725Z,13.35
2022-08-22T23:34:52.771Z,13.52
2022-08-22T23:37:23.944Z,12.80
2022-08-22T23:39:53.991Z,13.48
2022-08-22T23:42:23.957Z,14.73
2022-08-22T23:44:53.836Z,13.80
2022-08-22T23:47:25.235Z,14.68
2022-08-22T23:49:56.087Z,15.30
2022-08-22T23:52:25.964Z,14.30
2022-08-22T23:54:55.952Z,14.13
2022-08-22T23:57:27.397Z,14.55
2022-08-22T23:59:59.778Z,14.38
